createdAt,value
2022-12-03T00:01:14.039Z,4.22
2022-12-03T00:03:40.733Z,3.87
2022-12-03T00:06:07.693Z,4.40
2022-12-03T00:08:34.995Z,4.30
2022-12-03T00:11:01.509Z,4.50
2022-12-03T00:13:28.031Z,4.93
2022-12-03T00:15:55.185Z,5.23
2022-12-03T00:18:21.896Z,4.28
2022-12-03T00:20:48.523Z,4.25
2022-12-03T00:23:15.038Z,3.65
2022-12-03T00:25:41.560Z,4.63
2022-12-03T00:28:08.067Z,3.93
2022-12-03T00:30:34.581Z,4.78
2022-12-03T00:33:01.194Z,4.43
2022-12-03T00:35:27.692Z,4.90
2022-12-03T00:37:54.924Z,5.03
2022-12-03T00:40:21.629Z,4.20
2022-12-03T00:42:48.134Z,3.60
2022-12-03T00:45:14.902Z,5.28
2022-12-03T00:47:41.434Z,3.95
2022-12-03T00:50:08.562Z,3.78
2022-12-03T00:52:35.145Z,5.03
2022-12-03T00:55:01.831Z,3.95
2022-12-03T00:57:28.382Z,3.50
2022-12-03T00:59:54.906Z,3.80
2022-12-03T01:02:21.755Z,4.20
2022-12-03T01:04:48.407Z,4.13
2022-12-03T01:07:14.994Z,4.88
2022-12-03T01:09:41.502Z,4.10
2022-12-03T01:12:08.194Z,3.75
2022-12-03T01:14:34.758Z,3.50
2022-12-03T01:17:01.272Z,4.00
2022-12-03T01:19:27.903Z,4.35
2022-12-03T01:21:55.702Z,3.47
2022-12-03T01:24:22.331Z,4.55
2022-12-03T01:26:48.812Z,4.80
2022-12-03T01:29:15.709Z,4.13
2022-12-03T01:32:01.013Z,4.95
2022-12-03T01:34:27.861Z,4.47
2022-12-03T01:36:54.955Z,5.55
2022-12-03T01:39:21.505Z,5.50
2022-12-03T01:41:49.933Z,5.57
2022-12-03T01:44:33.726Z,5.03
2022-12-03T01:47:04.235Z,4.32
2022-12-03T01:49:56.478Z,5.35
2022-12-03T01:52:27.208Z,5.15
2022-12-03T01:54:57.019Z,4.57
2022-12-03T01:57:27.655Z,5.10
2022-12-03T01:59:57.228Z,5.03
2022-12-03T02:02:29.668Z,5.10
2022-12-03T02:04:57.094Z,4.72
2022-12-03T02:07:29.767Z,4.57
2022-12-03T02:09:58.366Z,4.07
2022-12-03T02:12:34.269Z,5.03
2022-12-03T02:15:02.121Z,5.25
2022-12-03T02:17:29.018Z,4.63
2022-12-03T02:19:56.341Z,5.30
2022-12-03T02:22:43.510Z,3.80
2022-12-03T02:25:19.662Z,3.85
2022-12-03T02:27:47.151Z,5.47
2022-12-03T02:30:18.270Z,4.63
2022-12-03T02:32:45.134Z,5.27
2022-12-03T02:35:20.949Z,4.70
2022-12-03T02:37:50.831Z,5.28
2022-12-03T02:40:21.764Z,4.18
2022-12-03T02:42:50.719Z,5.47
2022-12-03T02:45:26.971Z,4.43
2022-12-03T02:48:03.836Z,5.03
2022-12-03T02:50:34.057Z,4.05
2022-12-03T02:53:05.667Z,3.63
2022-12-03T02:55:37.096Z,3.47
2022-12-03T02:58:05.007Z,4.73
2022-12-03T03:00:31.722Z,4.25
2022-12-03T03:02:58.749Z,4.60
2022-12-03T03:05:25.534Z,4.07
2022-12-03T03:07:52.190Z,4.68
2022-12-03T03:10:22.984Z,4.97
2022-12-03T03:12:51.240Z,4.68
2022-12-03T03:15:18.045Z,4.45
2022-12-03T03:17:44.679Z,4.68
2022-12-03T03:20:11.969Z,4.20
2022-12-03T03:22:40.654Z,4.37
2022-12-03T03:25:10.915Z,3.30
2022-12-03T03:27:38.944Z,4.10
2022-12-03T03:30:06.786Z,3.33
2022-12-03T03:32:33.915Z,4.60
2022-12-03T03:35:00.890Z,3.90
2022-12-03T03:37:28.494Z,4.15
2022-12-03T03:39:55.619Z,3.72
2022-12-03T03:42:22.896Z,3.35
2022-12-03T03:44:49.775Z,3.53
2022-12-03T03:47:18.003Z,2.93
2022-12-03T03:49:44.896Z,3.83
2022-12-03T03:52:11.911Z,2.97
2022-12-03T03:54:39.482Z,2.63
2022-12-03T03:57:06.135Z,3.60
2022-12-03T03:59:32.775Z,3.23
2022-12-03T04:01:59.347Z,3.55
2022-12-03T04:04:27.427Z,3.42
2022-12-03T04:06:54.012Z,3.75
2022-12-03T04:09:20.514Z,2.00
2022-12-03T04:12:05.310Z,2.87
2022-12-03T04:14:31.812Z,3.13
2022-12-03T04:16:58.479Z,3.60
2022-12-03T04:19:25.060Z,3.22
2022-12-03T04:22:10.121Z,3.80
2022-12-03T04:24:36.779Z,3.63
2022-12-03T04:27:21.667Z,3.78
2022-12-03T04:29:48.296Z,3.85
2022-12-03T04:32:33.500Z,3.85
2022-12-03T04:35:18.920Z,3.67
2022-12-03T04:37:45.478Z,4.07
2022-12-03T04:40:31.019Z,3.95
2022-12-03T04:42:57.619Z,3.97
2022-12-03T04:45:24.253Z,3.33
2022-12-03T04:47:50.810Z,3.90
2022-12-03T04:50:17.307Z,3.53
2022-12-03T04:52:43.919Z,3.83
2022-12-03T04:55:10.652Z,2.97
2022-12-03T04:57:37.150Z,4.07
2022-12-03T05:00:05.478Z,3.88
2022-12-03T05:02:32.033Z,4.80
2022-12-03T05:04:58.623Z,4.30
2022-12-03T05:07:25.196Z,6.50
2022-12-03T05:09:51.848Z,4.32
2022-12-03T05:12:18.346Z,4.07
2022-12-03T05:14:44.829Z,3.70
2022-12-03T05:17:11.498Z,3.20
2022-12-03T05:19:56.520Z,4.53
2022-12-03T05:22:23.023Z,5.00
2022-12-03T05:24:49.540Z,4.22
2022-12-03T05:27:20.285Z,4.73
2022-12-03T05:29:50.141Z,3.92
2022-12-03T05:32:16.724Z,5.30
2022-12-03T05:34:43.229Z,5.40
2022-12-03T05:37:09.819Z,5.35
2022-12-03T05:39:36.514Z,4.40
2022-12-03T05:42:22.137Z,5.13
2022-12-03T05:44:48.630Z,4.80
2022-12-03T05:47:15.139Z,4.57
2022-12-03T05:49:41.751Z,6.38
2022-12-03T05:52:08.394Z,5.97
2022-12-03T05:54:34.936Z,5.72
2022-12-03T05:57:01.445Z,5.35
2022-12-03T05:59:28.064Z,5.05
2022-12-03T06:01:54.672Z,6.03
2022-12-03T06:04:21.187Z,5.83
2022-12-03T06:06:47.715Z,5.40
2022-12-03T06:09:14.221Z,4.63
2022-12-03T06:11:41.340Z,5.10
2022-12-03T06:14:08.207Z,4.38
2022-12-03T06:16:34.799Z,5.33
2022-12-03T06:19:01.381Z,5.07
2022-12-03T06:21:27.869Z,3.95
2022-12-03T06:23:54.364Z,5.13
2022-12-03T06:26:20.893Z,4.72
2022-12-03T06:28:49.134Z,4.40
2022-12-03T06:31:15.708Z,5.30
2022-12-03T06:33:42.347Z,4.07
2022-12-03T06:36:09.212Z,3.80
2022-12-03T06:38:35.721Z,4.07
2022-12-03T06:41:02.224Z,4.00
2022-12-03T06:43:28.849Z,5.07
2022-12-03T06:45:55.335Z,4.30
2022-12-03T06:48:22.033Z,4.50
2022-12-03T06:50:48.560Z,5.78
2022-12-03T06:53:15.061Z,4.90
2022-12-03T06:55:41.807Z,5.40
2022-12-03T06:58:08.315Z,5.10
2022-12-03T07:00:34.843Z,3.97
2022-12-03T07:03:01.445Z,3.95
2022-12-03T07:05:28.127Z,4.63
2022-12-03T07:07:55.505Z,4.35
2022-12-03T07:10:22.499Z,4.65
2022-12-03T07:12:49.024Z,4.38
2022-12-03T07:15:15.842Z,4.20
2022-12-03T07:17:42.352Z,3.97
2022-12-03T07:20:10.095Z,3.95
2022-12-03T07:22:36.648Z,3.90
2022-12-03T07:25:03.381Z,4.25
2022-12-03T07:27:29.866Z,4.15
2022-12-03T07:29:56.400Z,3.27
2022-12-03T07:32:23.214Z,3.58
2022-12-03T07:34:49.692Z,3.97
2022-12-03T07:37:21.411Z,3.50
2022-12-03T07:39:49.643Z,3.95
2022-12-03T07:42:16.162Z,3.97
2022-12-03T07:44:42.676Z,3.70
2022-12-03T07:47:09.233Z,3.55
2022-12-03T07:49:36.125Z,3.72
2022-12-03T07:52:02.650Z,3.47
2022-12-03T07:54:29.164Z,3.63
2022-12-03T07:57:01.155Z,3.17
2022-12-03T07:59:28.876Z,3.75
2022-12-03T08:01:55.488Z,3.70
2022-12-03T08:04:22.193Z,3.60
2022-12-03T08:06:49.026Z,3.43
2022-12-03T08:09:16.362Z,3.50
2022-12-03T08:11:45.196Z,3.10
2022-12-03T08:14:13.636Z,3.42
2022-12-03T08:16:41.915Z,3.47
2022-12-03T08:19:13.466Z,3.03
2022-12-03T08:21:41.051Z,4.05
2022-12-03T08:24:16.553Z,3.53
2022-12-03T08:26:45.127Z,3.95
2022-12-03T08:29:17.982Z,3.33
2022-12-03T08:31:48.765Z,2.67
2022-12-03T08:34:17.774Z,3.58
2022-12-03T08:36:45.195Z,4.07
2022-12-03T08:39:30.494Z,2.83
2022-12-03T08:42:27.289Z,3.30
2022-12-03T08:44:55.515Z,3.20
2022-12-03T08:47:24.401Z,3.00
2022-12-03T08:50:17.980Z,3.25
2022-12-03T08:52:44.560Z,3.13
2022-12-03T08:55:33.910Z,2.60
2022-12-03T08:58:00.538Z,2.53
2022-12-03T09:00:27.051Z,3.35
2022-12-03T09:02:59.493Z,3.10
2022-12-03T09:05:30.057Z,3.97
2022-12-03T09:07:56.664Z,3.38
2022-12-03T09:10:23.391Z,3.27
2022-12-03T09:12:49.967Z,2.95
2022-12-03T09:15:16.529Z,2.30
2022-12-03T09:17:43.039Z,2.75
2022-12-03T09:20:10.001Z,2.47
2022-12-03T09:22:36.775Z,2.60
2022-12-03T09:25:03.713Z,2.30
2022-12-03T09:27:30.227Z,2.13
2022-12-03T09:29:56.851Z,2.03
2022-12-03T09:32:24.612Z,2.40
2022-12-03T09:34:51.792Z,2.17
2022-12-03T09:37:18.677Z,2.75
2022-12-03T09:39:45.192Z,1.98
2022-12-03T09:42:12.023Z,1.80
2022-12-03T09:44:38.972Z,2.38
2022-12-03T09:47:06.788Z,2.53
2022-12-03T09:49:36.989Z,2.30
2022-12-03T09:52:05.731Z,2.60
2022-12-03T09:54:33.173Z,2.30
2022-12-03T09:57:02.676Z,2.28
2022-12-03T09:59:34.709Z,2.50
2022-12-03T10:02:02.738Z,2.20
2022-12-03T10:04:29.980Z,2.40
2022-12-03T10:06:58.272Z,2.80
2022-12-03T10:09:28.231Z,2.10
2022-12-03T10:11:57.211Z,2.30
2022-12-03T10:14:24.012Z,2.20
2022-12-03T10:16:51.003Z,1.80
2022-12-03T10:19:27.811Z,2.17
2022-12-03T10:21:55.842Z,1.85
2022-12-03T10:24:22.384Z,2.37
2022-12-03T10:26:51.244Z,2.13
2022-12-03T10:29:20.594Z,1.70
2022-12-03T10:31:56.203Z,2.05
2022-12-03T10:34:41.060Z,2.40
2022-12-03T10:37:12.273Z,2.17
2022-12-03T10:39:58.960Z,1.77
2022-12-03T10:42:28.648Z,2.00
2022-12-03T10:45:18.278Z,2.00
2022-12-03T10:48:12.190Z,2.28
2022-12-03T10:50:53.574Z,1.80
2022-12-03T10:53:22.761Z,2.22
2022-12-03T10:55:51.751Z,2.33
2022-12-03T10:58:18.209Z,1.90
2022-12-03T11:00:45.211Z,1.90
2022-12-03T11:03:29.562Z,2.47
2022-12-03T11:05:57.855Z,1.88
2022-12-03T11:08:27.680Z,2.28
2022-12-03T11:11:03.961Z,2.00
2022-12-03T11:13:33.442Z,2.28
2022-12-03T11:16:02.423Z,2.17
2022-12-03T11:18:37.695Z,2.05
2022-12-03T11:21:14.099Z,2.40
2022-12-03T11:23:46.610Z,1.95
2022-12-03T11:26:19.878Z,2.40
2022-12-03T11:28:46.670Z,2.17
2022-12-03T11:31:47.649Z,2.72
2022-12-03T11:34:20.632Z,2.22
2022-12-03T11:37:12.144Z,1.33
2022-12-03T11:39:44.754Z,1.60
2022-12-03T11:42:26.523Z,2.10
2022-12-03T11:45:05.490Z,2.20
2022-12-03T11:47:46.942Z,2.40
2022-12-03T11:50:23.375Z,2.10
2022-12-03T11:52:55.491Z,2.17
2022-12-03T11:55:37.369Z,2.17
2022-12-03T11:58:23.571Z,2.20
2022-12-03T12:00:52.066Z,1.45
2022-12-03T12:03:33.488Z,2.13
2022-12-03T12:06:00.265Z,2.40
2022-12-03T12:08:26.781Z,2.60
2022-12-03T12:10:53.308Z,2.38
2022-12-03T12:13:49.511Z,2.65
2022-12-03T12:16:42.889Z,1.95
2022-12-03T12:19:36.501Z,2.85
2022-12-03T12:22:14.272Z,1.83
2022-12-03T12:24:41.328Z,2.50
2022-12-03T12:27:09.133Z,2.53
2022-12-03T12:29:37.496Z,2.65
2022-12-03T12:32:10.696Z,2.60
2022-12-03T12:34:38.361Z,2.77
2022-12-03T12:37:09.924Z,2.85
2022-12-03T12:39:36.712Z,3.17
2022-12-03T12:42:24.383Z,2.35
2022-12-03T12:44:52.212Z,2.72
2022-12-03T12:47:18.809Z,2.77
2022-12-03T12:49:51.489Z,2.80
2022-12-03T12:52:18.325Z,2.65
2022-12-03T12:54:44.896Z,3.20
2022-12-03T12:57:20.583Z,2.92
2022-12-03T12:59:47.311Z,2.83
2022-12-03T13:02:37.105Z,2.75
2022-12-03T13:05:04.430Z,3.03
2022-12-03T13:07:31.541Z,2.50
2022-12-03T13:10:00.209Z,2.72
2022-12-03T13:12:27.083Z,2.80
2022-12-03T13:14:58.652Z,4.05
2022-12-03T13:17:26.074Z,3.70
2022-12-03T13:20:03.631Z,4.00
2022-12-03T13:22:31.873Z,3.30
2022-12-03T13:25:38.320Z,3.73
2022-12-03T13:28:08.072Z,3.05
2022-12-03T13:30:34.578Z,2.97
2022-12-03T13:33:29.328Z,3.42
2022-12-03T13:35:56.465Z,4.05
2022-12-03T13:38:25.871Z,3.73
2022-12-03T13:41:01.409Z,3.05
2022-12-03T13:43:32.753Z,4.75
2022-12-03T13:46:00.142Z,3.70
2022-12-03T13:48:34.133Z,4.35
2022-12-03T13:51:11.599Z,3.30
2022-12-03T13:53:40.587Z,3.80
2022-12-03T13:56:28.569Z,3.30
2022-12-03T13:58:57.337Z,3.58
2022-12-03T14:01:23.928Z,4.07
2022-12-03T14:03:50.634Z,3.07
2022-12-03T14:06:17.155Z,4.18
2022-12-03T14:08:43.955Z,4.57
2022-12-03T14:11:30.680Z,3.80
2022-12-03T14:13:57.190Z,4.45
2022-12-03T14:16:23.741Z,4.50
2022-12-03T14:18:50.361Z,3.92
2022-12-03T14:21:16.862Z,4.22
2022-12-03T14:23:43.845Z,3.75
2022-12-03T14:26:10.356Z,4.03
2022-12-03T14:28:36.942Z,4.10
2022-12-03T14:31:03.448Z,4.68
2022-12-03T14:33:29.948Z,3.80
2022-12-03T14:35:57.451Z,4.43
2022-12-03T14:38:24.005Z,4.35
2022-12-03T14:40:50.532Z,4.10
2022-12-03T14:43:17.026Z,4.20
2022-12-03T14:45:43.699Z,4.78
2022-12-03T14:48:10.176Z,4.72
2022-12-03T14:50:36.768Z,4.70
2022-12-03T14:53:03.346Z,5.20
2022-12-03T14:55:29.856Z,4.72
2022-12-03T14:57:56.389Z,4.80
2022-12-03T15:00:22.887Z,4.40
2022-12-03T15:02:49.464Z,5.53
2022-12-03T15:05:15.996Z,5.23
2022-12-03T15:07:42.848Z,4.90
2022-12-03T15:10:09.854Z,4.97
2022-12-03T15:12:36.345Z,5.78
2022-12-03T15:15:02.990Z,6.00
2022-12-03T15:17:31.957Z,5.00
2022-12-03T15:19:58.823Z,5.10
2022-12-03T15:22:25.350Z,4.93
2022-12-03T15:24:51.843Z,4.22
2022-12-03T15:27:18.401Z,4.68
2022-12-03T15:29:44.889Z,5.03
2022-12-03T15:32:11.392Z,5.38
2022-12-03T15:34:37.963Z,5.25
2022-12-03T15:37:04.488Z,4.53
2022-12-03T15:39:32.940Z,5.72
2022-12-03T15:41:59.471Z,5.37
2022-12-03T15:44:25.978Z,4.82
2022-12-03T15:46:52.483Z,5.38
2022-12-03T15:49:20.126Z,4.25
2022-12-03T15:51:46.660Z,4.85
2022-12-03T15:54:13.253Z,5.43
2022-12-03T15:56:39.784Z,4.82
2022-12-03T15:59:06.296Z,3.75
2022-12-03T16:01:33.028Z,5.32
2022-12-03T16:03:59.648Z,5.43
2022-12-03T16:06:26.160Z,6.07
2022-12-03T16:08:52.943Z,3.83
2022-12-03T16:11:19.438Z,5.90
2022-12-03T16:13:45.979Z,5.43
2022-12-03T16:16:12.651Z,5.88
2022-12-03T16:18:39.235Z,5.43
2022-12-03T16:21:05.796Z,5.55
2022-12-03T16:23:32.289Z,6.10
2022-12-03T16:25:58.786Z,5.78
2022-12-03T16:28:25.313Z,6.07
2022-12-03T16:30:51.985Z,5.33
2022-12-03T16:33:22.641Z,3.78
2022-12-03T16:35:53.695Z,5.72
2022-12-03T16:38:20.199Z,5.63
2022-12-03T16:40:46.734Z,6.03
2022-12-03T16:43:13.399Z,5.73
2022-12-03T16:45:42.486Z,5.25
2022-12-03T16:48:09.080Z,6.60
2022-12-03T16:50:37.631Z,6.65
2022-12-03T16:53:04.286Z,6.32
2022-12-03T16:55:30.919Z,5.60
2022-12-03T16:57:57.459Z,6.72
2022-12-03T17:00:25.864Z,7.18
2022-12-03T17:02:52.444Z,5.70
2022-12-03T17:05:19.038Z,6.80
2022-12-03T17:07:45.663Z,5.07
2022-12-03T17:10:12.321Z,5.95
2022-12-03T17:13:07.538Z,6.25
2022-12-03T17:15:25.387Z,5.57
2022-12-03T17:17:51.961Z,5.28
2022-12-03T17:20:18.607Z,6.50
2022-12-03T17:22:45.098Z,7.10
2022-12-03T17:25:11.762Z,6.78
2022-12-03T17:27:43.474Z,6.97
2022-12-03T17:30:12.647Z,7.10
2022-12-03T17:32:39.679Z,7.37
2022-12-03T17:35:06.677Z,7.88
2022-12-03T17:37:33.699Z,6.10
2022-12-03T17:40:00.421Z,6.78
2022-12-03T17:42:26.977Z,6.60
2022-12-03T17:44:53.526Z,6.80
2022-12-03T17:47:20.040Z,5.53
2022-12-03T17:49:46.613Z,8.13
2022-12-03T17:52:13.141Z,6.15
2022-12-03T17:55:08.247Z,6.05
2022-12-03T17:57:41.381Z,6.43
2022-12-03T18:00:08.922Z,7.80
2022-12-03T18:02:35.425Z,8.30
2022-12-03T18:05:02.085Z,8.60
2022-12-03T18:07:28.701Z,9.00
2022-12-03T18:09:55.595Z,9.10
2022-12-03T18:12:22.262Z,8.75
2022-12-03T18:14:48.764Z,8.25
2022-12-03T18:17:15.291Z,9.10
2022-12-03T18:19:41.765Z,7.85
2022-12-03T18:22:08.443Z,8.53
2022-12-03T18:24:35.152Z,7.38
2022-12-03T18:27:01.673Z,7.90
2022-12-03T18:29:28.190Z,7.93
2022-12-03T18:31:54.855Z,7.90
2022-12-03T18:34:21.461Z,9.00
2022-12-03T18:36:49.406Z,8.43
2022-12-03T18:39:36.692Z,9.18
2022-12-03T18:42:17.311Z,8.07
2022-12-03T18:44:49.435Z,7.90
2022-12-03T18:47:19.524Z,7.43
2022-12-03T18:49:46.243Z,7.80
2022-12-03T18:52:15.148Z,8.30
2022-12-03T18:54:42.150Z,8.15
2022-12-03T18:57:09.017Z,8.45
2022-12-03T18:59:35.540Z,7.27
2022-12-03T19:02:02.226Z,7.85
2022-12-03T19:04:28.771Z,7.72
2022-12-03T19:06:55.419Z,7.85
2022-12-03T19:09:22.006Z,7.22
2022-12-03T19:11:48.638Z,9.33
2022-12-03T19:14:15.399Z,7.88
2022-12-03T19:16:42.445Z,7.70
2022-12-03T19:19:09.697Z,8.23
2022-12-03T19:21:36.910Z,8.50
2022-12-03T19:24:23.703Z,7.83
2022-12-03T19:26:54.510Z,8.52
2022-12-03T19:29:24.111Z,8.95
2022-12-03T19:31:51.851Z,7.32
2022-12-03T19:34:18.564Z,7.60
2022-12-03T19:36:45.186Z,8.37
2022-12-03T19:39:11.796Z,7.88
2022-12-03T19:41:39.287Z,8.75
2022-12-03T19:44:10.698Z,7.55
2022-12-03T19:46:37.542Z,8.07
2022-12-03T19:49:04.897Z,7.23
2022-12-03T19:51:35.154Z,8.30
2022-12-03T19:54:04.422Z,9.30
2022-12-03T19:56:31.328Z,8.00
2022-12-03T19:58:58.682Z,8.30
2022-12-03T20:01:28.610Z,8.73
2022-12-03T20:03:56.997Z,8.82
2022-12-03T20:06:26.879Z,8.68
2022-12-03T20:08:58.507Z,10.27
2022-12-03T20:11:30.354Z,8.57
2022-12-03T20:13:59.520Z,8.70
2022-12-03T20:16:28.005Z,7.88
2022-12-03T20:19:03.243Z,9.45
2022-12-03T20:21:31.889Z,7.55
2022-12-03T20:23:58.771Z,7.93
2022-12-03T20:26:25.395Z,7.97
2022-12-03T20:28:54.959Z,7.32
2022-12-03T20:31:23.682Z,8.00
2022-12-03T20:33:52.435Z,8.52
2022-12-03T20:36:23.473Z,8.70
2022-12-03T20:38:55.104Z,8.43
2022-12-03T20:41:22.061Z,7.82
2022-12-03T20:43:48.961Z,8.48
2022-12-03T20:46:25.615Z,10.00
2022-12-03T20:48:54.094Z,8.25
2022-12-03T20:51:23.237Z,8.00
2022-12-03T20:53:50.036Z,8.75
2022-12-03T20:56:20.320Z,7.18
2022-12-03T20:58:50.552Z,7.10
2022-12-03T21:01:19.982Z,6.70
2022-12-03T21:03:47.414Z,7.77
2022-12-03T21:06:14.909Z,6.80
2022-12-03T21:08:42.791Z,7.63
2022-12-03T21:11:17.107Z,9.35
2022-12-03T21:13:44.341Z,8.27
2022-12-03T21:16:39.739Z,8.83
2022-12-03T21:19:11.396Z,8.85
2022-12-03T21:21:37.921Z,8.73
2022-12-03T21:24:04.683Z,7.75
2022-12-03T21:26:31.366Z,7.72
2022-12-03T21:28:57.872Z,7.83
2022-12-03T21:31:26.626Z,7.97
2022-12-03T21:33:54.653Z,8.20
2022-12-03T21:36:21.912Z,8.30
2022-12-03T21:38:48.699Z,7.68
2022-12-03T21:41:16.029Z,9.13
2022-12-03T21:43:43.570Z,7.22
2022-12-03T21:47:10.838Z,7.50
2022-12-03T21:49:01.711Z,7.65
2022-12-03T21:51:28.244Z,7.75
2022-12-03T21:53:54.866Z,7.93
2022-12-03T21:56:21.547Z,7.90
2022-12-03T21:58:48.070Z,7.78
2022-12-03T22:01:19.485Z,8.55
2022-12-03T22:03:46.674Z,7.25
2022-12-03T22:06:14.015Z,8.40
2022-12-03T22:08:41.439Z,7.32
2022-12-03T22:11:17.818Z,7.88
2022-12-03T22:13:45.002Z,8.68
2022-12-03T22:16:19.597Z,8.02
2022-12-03T22:18:46.625Z,7.53
2022-12-03T22:21:16.049Z,7.30
2022-12-03T22:23:42.692Z,7.63
2022-12-03T22:26:12.787Z,7.93
2022-12-03T22:28:43.098Z,6.85
2022-12-03T22:31:10.133Z,7.70
2022-12-03T22:33:37.126Z,7.18
2022-12-03T22:36:13.391Z,7.93
2022-12-03T22:38:44.922Z,7.82
2022-12-03T22:41:13.313Z,7.65
2022-12-03T22:43:40.674Z,7.60
2022-12-03T22:46:10.452Z,7.80
2022-12-03T22:48:37.130Z,7.47
2022-12-03T22:51:05.056Z,7.35
2022-12-03T22:53:31.535Z,8.65
2022-12-03T22:56:00.222Z,7.40
2022-12-03T22:58:28.637Z,7.40
2022-12-03T23:01:01.270Z,8.20
2022-12-03T23:03:29.754Z,6.32
2022-12-03T23:05:56.591Z,6.28
2022-12-03T23:08:23.282Z,6.23
2022-12-03T23:10:52.117Z,7.75
2022-12-03T23:13:19.619Z,5.50
2022-12-03T23:15:51.826Z,6.88
2022-12-03T23:18:19.917Z,7.07
2022-12-03T23:20:49.092Z,6.03
2022-12-03T23:23:16.788Z,6.55
2022-12-03T23:25:43.317Z,6.43
2022-12-03T23:28:10.611Z,6.57
2022-12-03T23:30:38.819Z,6.75
2022-12-03T23:33:06.406Z,6.57
2022-12-03T23:35:33.526Z,6.03
2022-12-03T23:38:00.155Z,6.97
2022-12-03T23:40:26.695Z,7.32
2022-12-03T23:42:53.197Z,6.63
2022-12-03T23:45:19.690Z,6.47
2022-12-03T23:47:46.210Z,7.10
2022-12-03T23:50:12.993Z,7.50
2022-12-03T23:52:39.546Z,5.80
2022-12-03T23:55:06.519Z,7.40
2022-12-03T23:57:34.469Z,7.60
